sensor_id;sensor_type;location;lat;lon;timestamp;pressure;altitude;pressure_sealevel;temperature;humidity
19108;BME280;9686;48.832;9.126;2023-04-25T00:00:17;97565.06;;;10.17;nan
19108;BME280;9686;48.832;9.126;2023-04-25T00:02:42;97561.78;;;10.03;nan
19108;BME280;9686;48.832;9.126;2023-04-25T00:05:08;97566.94;;;10.08;nan
19108;BME280;9686;48.832;9.126;2023-04-25T00:07:34;97560.84;;;10.09;nan
19108;BME280;9686;48.832;9.126;2023-04-25T00:10:00;97565.13;;;10.13;nan
19108;BME280;9686;48.832;9.126;2023-04-25T00:12:25;97559.16;;;10.05;nan
19108;BME280;9686;48.832;9.126;2023-04-25T00:14:53;97560.97;;;10.01;nan
19108;BME280;9686;48.832;9.126;2023-04-25T00:17:18;97551.38;;;10.03;nan
19108;BME280;9686;48.832;9.126;2023-04-25T00:19:44;97548.75;;;10.05;nan
19108;BME280;9686;48.832;9.126;2023-04-25T00:22:11;97554.88;;;10.02;nan
19108;BME280;9686;48.832;9.126;2023-04-25T00:24:37;97554.81;;;10.05;nan
19108;BME280;9686;48.832;9.126;2023-04-25T00:27:02;97553.00;;;10.10;nan
19108;BME280;9686;48.832;9.126;2023-04-25T00:29:27;97565.91;;;10.19;nan
19108;BME280;9686;48.832;9.126;2023-04-25T00:31:53;97551.09;;;10.25;nan
19108;BME280;9686;48.832;9.126;2023-04-25T00:34:18;97562.41;;;10.24;nan
19108;BME280;9686;48.832;9.126;2023-04-25T00:36:43;97553.75;;;10.20;nan
19108;BME280;9686;48.832;9.126;2023-04-25T00:39:09;97546.78;;;10.24;nan
19108;BME280;9686;48.832;9.126;2023-04-25T00:41:34;97536.53;;;10.08;nan
19108;BME280;9686;48.832;9.126;2023-04-25T00:44:00;97538.28;;;10.08;nan
19108;BME280;9686;48.832;9.126;2023-04-25T00:46:26;97536.53;;;10.10;nan
19108;BME280;9686;48.832;9.126;2023-04-25T00:48:51;97540.75;;;10.18;nan
19108;BME280;9686;48.832;9.126;2023-04-25T00:51:20;97533.81;;;10.17;nan
19108;BME280;9686;48.832;9.126;2023-04-25T00:53:46;97526.88;;;10.16;nan
19108;BME280;9686;48.832;9.126;2023-04-25T00:56:12;97534.69;;;10.16;nan
19108;BME280;9686;48.832;9.126;2023-04-25T00:58:38;97526.88;;;10.18;nan
19108;BME280;9686;48.832;9.126;2023-04-25T01:01:03;97523.56;;;10.07;nan
19108;BME280;9686;48.832;9.126;2023-04-25T01:03:32;97527.09;;;10.01;nan
19108;BME280;9686;48.832;9.126;2023-04-25T01:05:58;97526.22;;;10.02;nan
19108;BME280;9686;48.832;9.126;2023-04-25T01:08:24;97519.09;;;10.15;nan
19108;BME280;9686;48.832;9.126;2023-04-25T01:10:50;97524.47;;;10.03;nan
19108;BME280;9686;48.832;9.126;2023-04-25T01:13:16;97518.31;;;10.08;nan
19108;BME280;9686;48.832;9.126;2023-04-25T01:15:41;97524.34;;;10.12;nan
19108;BME280;9686;48.832;9.126;2023-04-25T01:18:06;97526.28;;;9.99;nan
19108;BME280;9686;48.832;9.126;2023-04-25T01:20:32;97530.50;;;10.06;nan
19108;BME280;9686;48.832;9.126;2023-04-25T01:22:58;97524.28;;;10.16;nan
19108;BME280;9686;48.832;9.126;2023-04-25T01:25:24;97521.81;;;10.06;nan
19108;BME280;9686;48.832;9.126;2023-04-25T01:27:50;97518.41;;;10.02;nan
19108;BME280;9686;48.832;9.126;2023-04-25T01:30:16;97515.88;;;9.98;nan
19108;BME280;9686;48.832;9.126;2023-04-25T01:32:42;97508.06;;;9.98;nan
19108;BME280;9686;48.832;9.126;2023-04-25T01:35:10;97509.91;;;9.91;nan
19108;BME280;9686;48.832;9.126;2023-04-25T01:37:42;97509.91;;;9.91;nan
19108;BME280;9686;48.832;9.126;2023-04-25T01:40:09;97509.09;;;9.89;nan
19108;BME280;9686;48.832;9.126;2023-04-25T01:42:37;97514.28;;;9.89;nan
19108;BME280;9686;48.832;9.126;2023-04-25T01:45:03;97519.41;;;9.95;nan
19108;BME280;9686;48.832;9.126;2023-04-25T01:47:28;97513.25;;;9.99;nan
19108;BME280;9686;48.832;9.126;2023-04-25T01:49:54;97515.78;;;10.04;nan
19108;BME280;9686;48.832;9.126;2023-04-25T01:52:20;97515.69;;;10.10;nan
19108;BME280;9686;48.832;9.126;2023-04-25T01:54:45;97515.91;;;9.96;nan
19108;BME280;9686;48.832;9.126;2023-04-25T01:57:11;97512.53;;;9.88;nan
19108;BME280;9686;48.832;9.126;2023-04-25T01:59:37;97511.69;;;9.87;nan
19108;BME280;9686;48.832;9.126;2023-04-25T02:02:02;97516.03;;;9.87;nan
19108;BME280;9686;48.832;9.126;2023-04-25T02:04:29;97514.31;;;9.86;nan
19108;BME280;9686;48.832;9.126;2023-04-25T02:06:54;97512.53;;;9.89;nan
19108;BME280;9686;48.832;9.126;2023-04-25T02:09:20;97516.00;;;9.88;nan
19108;BME280;9686;48.832;9.126;2023-04-25T02:11:45;97518.75;;;9.79;nan
19108;BME280;9686;48.832;9.126;2023-04-25T02:14:10;97510.81;;;9.90;nan
19108;BME280;9686;48.832;9.126;2023-04-25T02:16:36;97510.97;;;9.76;nan
19108;BME280;9686;48.832;9.126;2023-04-25T02:19:01;97506.53;;;9.83;nan
19108;BME280;9686;48.832;9.126;2023-04-25T02:21:27;97504.91;;;9.76;nan
19108;BME280;9686;48.832;9.126;2023-04-25T02:23:52;97502.28;;;9.77;nan
19108;BME280;9686;48.832;9.126;2023-04-25T02:26:17;97501.63;;;9.65;nan
19108;BME280;9686;48.832;9.126;2023-04-25T02:28:43;97502.50;;;9.64;nan
19108;BME280;9686;48.832;9.126;2023-04-25T02:31:08;97506.03;;;9.58;nan
19108;BME280;9686;48.832;9.126;2023-04-25T02:33:33;97513.84;;;9.56;nan
19108;BME280;9686;48.832;9.126;2023-04-25T02:35:59;97506.22;;;9.44;nan
19108;BME280;9686;48.832;9.126;2023-04-25T02:38:24;97501.06;;;9.41;nan
19108;BME280;9686;48.832;9.126;2023-04-25T02:40:50;97497.50;;;9.47;nan
19108;BME280;9686;48.832;9.126;2023-04-25T02:43:15;97495.75;;;9.49;nan
19108;BME280;9686;48.832;9.126;2023-04-25T02:45:41;97488.97;;;9.39;nan
19108;BME280;9686;48.832;9.126;2023-04-25T02:48:06;97485.50;;;9.35;nan
19108;BME280;9686;48.832;9.126;2023-04-25T02:50:32;97497.53;;;9.45;nan
19108;BME280;9686;48.832;9.126;2023-04-25T02:52:57;97494.16;;;9.40;nan
19108;BME280;9686;48.832;9.126;2023-04-25T02:55:22;97493.16;;;9.47;nan
19108;BME280;9686;48.832;9.126;2023-04-25T02:57:48;97497.63;;;9.39;nan
19108;BME280;9686;48.832;9.126;2023-04-25T03:00:13;97501.94;;;9.40;nan
19108;BME280;9686;48.832;9.126;2023-04-25T03:02:39;97493.19;;;9.46;nan
19108;BME280;9686;48.832;9.126;2023-04-25T03:05:05;97490.56;;;9.47;nan
19108;BME280;9686;48.832;9.126;2023-04-25T03:07:31;97490.53;;;9.50;nan
19108;BME280;9686;48.832;9.126;2023-04-25T03:09:56;97493.16;;;9.49;nan
19108;BME280;9686;48.832;9.126;2023-04-25T03:12:22;97488.81;;;9.49;nan
19108;BME280;9686;48.832;9.126;2023-04-25T03:14:47;97489.66;;;9.50;nan
19108;BME280;9686;48.832;9.126;2023-04-25T03:17:12;97475.75;;;9.52;nan
19108;BME280;9686;48.832;9.126;2023-04-25T03:19:37;97477.44;;;9.55;nan
19108;BME280;9686;48.832;9.126;2023-04-25T03:22:03;97477.44;;;9.56;nan
19108;BME280;9686;48.832;9.126;2023-04-25T03:24:28;97485.34;;;9.49;nan
19108;BME280;9686;48.832;9.126;2023-04-25T03:26:53;97480.22;;;9.44;nan
19108;BME280;9686;48.832;9.126;2023-04-25T03:29:19;97487.13;;;9.45;nan
19108;BME280;9686;48.832;9.126;2023-04-25T03:31:44;97488.06;;;9.40;nan
19108;BME280;9686;48.832;9.126;2023-04-25T03:34:10;97486.19;;;9.51;nan
19108;BME280;9686;48.832;9.126;2023-04-25T03:36:35;97479.16;;;9.56;nan
19108;BME280;9686;48.832;9.126;2023-04-25T03:39:01;97487.19;;;9.41;nan
19108;BME280;9686;48.832;9.126;2023-04-25T03:41:26;97482.88;;;9.37;nan
19108;BME280;9686;48.832;9.126;2023-04-25T03:43:51;97488.03;;;9.43;nan
19108;BME280;9686;48.832;9.126;2023-04-25T03:46:17;97476.75;;;9.44;nan
19108;BME280;9686;48.832;9.126;2023-04-25T03:48:42;97481.75;;;9.57;nan
19108;BME280;9686;48.832;9.126;2023-04-25T03:51:07;97480.22;;;9.44;nan
19108;BME280;9686;48.832;9.126;2023-04-25T03:53:33;97477.44;;;9.55;nan
19108;BME280;9686;48.832;9.126;2023-04-25T03:55:58;97480.28;;;9.40;nan
19108;BME280;9686;48.832;9.126;2023-04-25T03:58:23;97473.38;;;9.37;nan
19108;BME280;9686;48.832;9.126;2023-04-25T04:00:49;97479.41;;;9.41;nan
19108;BME280;9686;48.832;9.126;2023-04-25T04:03:14;97469.03;;;9.36;nan
19108;BME280;9686;48.832;9.126;2023-04-25T04:05:40;97470.78;;;9.34;nan
19108;BME280;9686;48.832;9.126;2023-04-25T04:08:06;97467.31;;;9.35;nan
19108;BME280;9686;48.832;9.126;2023-04-25T04:10:31;97480.34;;;9.32;nan
19108;BME280;9686;48.832;9.126;2023-04-25T04:12:56;97470.81;;;9.33;nan
19108;BME280;9686;48.832;9.126;2023-04-25T04:15:22;97483.91;;;9.26;nan
19108;BME280;9686;48.832;9.126;2023-04-25T04:17:48;97477.72;;;9.34;nan
19108;BME280;9686;48.832;9.126;2023-04-25T04:20:14;97477.72;;;9.34;nan
19108;BME280;9686;48.832;9.126;2023-04-25T04:22:39;97482.22;;;9.22;nan
19108;BME280;9686;48.832;9.126;2023-04-25T04:25:05;97484.66;;;9.33;nan
19108;BME280;9686;48.832;9.126;2023-04-25T04:27:31;97490.69;;;9.40;nan
19108;BME280;9686;48.832;9.126;2023-04-25T04:29:56;97485.53;;;9.34;nan
19108;BME280;9686;48.832;9.126;2023-04-25T04:32:22;97492.44;;;9.38;nan
19108;BME280;9686;48.832;9.126;2023-04-25T04:34:48;97488.81;;;9.48;nan
19108;BME280;9686;48.832;9.126;2023-04-25T04:37:14;97498.63;;;9.27;nan
19108;BME280;9686;48.832;9.126;2023-04-25T04:39:40;97501.19;;;9.31;nan
19108;BME280;9686;48.832;9.126;2023-04-25T04:42:05;97506.28;;;9.40;nan
19108;BME280;9686;48.832;9.126;2023-04-25T04:44:31;97498.50;;;9.37;nan
19108;BME280;9686;48.832;9.126;2023-04-25T04:47:00;97503.69;;;9.37;nan
19108;BME280;9686;48.832;9.126;2023-04-25T04:49:26;97500.13;;;9.47;nan
19108;BME280;9686;48.832;9.126;2023-04-25T04:51:51;97496.78;;;9.34;nan
19108;BME280;9686;48.832;9.126;2023-04-25T04:54:17;97506.28;;;9.37;nan
19108;BME280;9686;48.832;9.126;2023-04-25T04:56:42;97518.44;;;9.38;nan
19108;BME280;9686;48.832;9.126;2023-04-25T04:59:08;97511.31;;;9.52;nan
19108;BME280;9686;48.832;9.126;2023-04-25T05:01:34;97524.47;;;9.41;nan
19108;BME280;9686;48.832;9.126;2023-04-25T05:04:02;97516.63;;;9.44;nan
19108;BME280;9686;48.832;9.126;2023-04-25T05:06:28;97520.88;;;9.50;nan
19108;BME280;9686;48.832;9.126;2023-04-25T05:08:57;97529.63;;;9.44;nan
19108;BME280;9686;48.832;9.126;2023-04-25T05:11:23;97518.28;;;9.50;nan
19108;BME280;9686;48.832;9.126;2023-04-25T05:13:52;97515.50;;;9.64;nan
19108;BME280;9686;48.832;9.126;2023-04-25T05:16:18;97512.69;;;9.77;nan
19108;BME280;9686;48.832;9.126;2023-04-25T05:18:43;97513.59;;;9.75;nan
19108;BME280;9686;48.832;9.126;2023-04-25T05:21:08;97520.47;;;9.80;nan
19108;BME280;9686;48.832;9.126;2023-04-25T05:23:34;97517.06;;;9.75;nan
19108;BME280;9686;48.832;9.126;2023-04-25T05:25:59;97524.00;;;9.76;nan
19108;BME280;9686;48.832;9.126;2023-04-25T05:28:25;97527.59;;;9.68;nan
19108;BME280;9686;48.832;9.126;2023-04-25T05:30:50;97534.69;;;9.55;nan
19108;BME280;9686;48.832;9.126;2023-04-25T05:33:16;97537.41;;;9.47;nan
19108;BME280;9686;48.832;9.126;2023-04-25T05:35:42;97541.88;;;9.33;nan
19108;BME280;9686;48.832;9.126;2023-04-25T05:38:07;97559.44;;;9.17;nan
19108;BME280;9686;48.832;9.126;2023-04-25T05:40:32;97556.25;;;8.89;nan
19108;BME280;9686;48.832;9.126;2023-04-25T05:42:58;97558.00;;;8.87;nan
19108;BME280;9686;48.832;9.126;2023-04-25T05:45:23;97552.06;;;8.73;nan
19108;BME280;9686;48.832;9.126;2023-04-25T05:47:48;97549.50;;;8.72;nan
19108;BME280;9686;48.832;9.126;2023-04-25T05:50:13;97550.31;;;8.75;nan
19108;BME280;9686;48.832;9.126;2023-04-25T05:52:39;97562.59;;;8.59;nan
19108;BME280;9686;48.832;9.126;2023-04-25T05:55:05;97558.25;;;8.63;nan
19108;BME280;9686;48.832;9.126;2023-04-25T05:57:30;97562.44;;;8.75;nan
19108;BME280;9686;48.832;9.126;2023-04-25T05:59:56;97565.00;;;8.79;nan
19108;BME280;9686;48.832;9.126;2023-04-25T06:02:22;97567.50;;;8.90;nan
19108;BME280;9686;48.832;9.126;2023-04-25T06:04:50;97571.69;;;9.03;nan
19108;BME280;9686;48.832;9.126;2023-04-25T06:07:16;97574.25;;;9.08;nan
19108;BME280;9686;48.832;9.126;2023-04-25T06:09:43;97577.69;;;9.10;nan
19108;BME280;9686;48.832;9.126;2023-04-25T06:12:08;97575.88;;;9.18;nan
19108;BME280;9686;48.832;9.126;2023-04-25T06:14:33;97573.16;;;9.28;nan
19108;BME280;9686;48.832;9.126;2023-04-25T06:16:59;97560.91;;;9.40;nan
19108;BME280;9686;48.832;9.126;2023-04-25T06:19:24;97559.09;;;9.46;nan
19108;BME280;9686;48.832;9.126;2023-04-25T06:21:50;97560.63;;;9.61;nan
19108;BME280;9686;48.832;9.126;2023-04-25T06:24:15;97551.09;;;9.63;nan
19108;BME280;9686;48.832;9.126;2023-04-25T06:26:40;97546.56;;;9.76;nan
19108;BME280;9686;48.832;9.126;2023-04-25T06:29:05;97538.72;;;9.79;nan
19108;BME280;9686;48.832;9.126;2023-04-25T06:31:31;97538.59;;;9.86;nan
19108;BME280;9686;48.832;9.126;2023-04-25T06:33:59;97531.53;;;9.96;nan
19108;BME280;9686;48.832;9.126;2023-04-25T06:36:24;97533.28;;;9.94;nan
19108;BME280;9686;48.832;9.126;2023-04-25T06:38:51;97537.59;;;9.97;nan
19108;BME280;9686;48.832;9.126;2023-04-25T06:41:17;97539.28;;;9.99;nan
19108;BME280;9686;48.832;9.126;2023-04-25T06:43:43;97541.81;;;10.04;nan
19108;BME280;9686;48.832;9.126;2023-04-25T06:46:08;97541.84;;;10.02;nan
19108;BME280;9686;48.832;9.126;2023-04-25T06:48:33;97541.72;;;10.10;nan
19108;BME280;9686;48.832;9.126;2023-04-25T06:50:58;97537.31;;;10.16;nan
19108;BME280;9686;48.832;9.126;2023-04-25T06:53:24;97537.31;;;10.16;nan
19108;BME280;9686;48.832;9.126;2023-04-25T06:55:49;97544.41;;;10.05;nan
19108;BME280;9686;48.832;9.126;2023-04-25T06:58:15;97539.28;;;10.01;nan
19108;BME280;9686;48.832;9.126;2023-04-25T07:00:40;97542.78;;;9.98;nan
19108;BME280;9686;48.832;9.126;2023-04-25T07:03:05;97532.53;;;9.84;nan
19108;BME280;9686;48.832;9.126;2023-04-25T07:05:31;97529.00;;;9.92;nan
19108;BME280;9686;48.832;9.126;2023-04-25T07:07:56;97536.66;;;10.01;nan
19108;BME280;9686;48.832;9.126;2023-04-25T07:10:21;97546.38;;;9.89;nan
19108;BME280;9686;48.832;9.126;2023-04-25T07:12:47;97534.25;;;9.87;nan
19108;BME280;9686;48.832;9.126;2023-04-25T07:15:12;97541.03;;;9.99;nan
19108;BME280;9686;48.832;9.126;2023-04-25T07:17:37;97543.56;;;10.03;nan
19108;BME280;9686;48.832;9.126;2023-04-25T07:20:04;97542.00;;;9.93;nan
19108;BME280;9686;48.832;9.126;2023-04-25T07:22:31;97542.91;;;9.87;nan
19108;BME280;9686;48.832;9.126;2023-04-25T07:24:56;97542.06;;;9.85;nan
19108;BME280;9686;48.832;9.126;2023-04-25T07:27:21;97548.88;;;9.97;nan
19108;BME280;9686;48.832;9.126;2023-04-25T07:29:47;97554.09;;;9.96;nan
19108;BME280;9686;48.832;9.126;2023-04-25T07:32:12;97549.72;;;9.98;nan
19108;BME280;9686;48.832;9.126;2023-04-25T07:34:39;97555.97;;;9.84;nan
19108;BME280;9686;48.832;9.126;2023-04-25T07:37:04;97559.56;;;9.77;nan
19108;BME280;9686;48.832;9.126;2023-04-25T07:39:30;97562.97;;;9.81;nan
19108;BME280;9686;48.832;9.126;2023-04-25T07:41:56;97562.09;;;9.80;nan
19108;BME280;9686;48.832;9.126;2023-04-25T07:44:23;97563.00;;;9.79;nan
19108;BME280;9686;48.832;9.126;2023-04-25T07:46:49;97565.50;;;9.85;nan
19108;BME280;9686;48.832;9.126;2023-04-25T07:49:14;97569.94;;;9.79;nan
19108;BME280;9686;48.832;9.126;2023-04-25T07:51:40;97571.72;;;9.75;nan
19108;BME280;9686;48.832;9.126;2023-04-25T07:54:06;97568.94;;;9.87;nan
19108;BME280;9686;48.832;9.126;2023-04-25T07:56:32;97579.50;;;9.78;nan
19108;BME280;9686;48.832;9.126;2023-04-25T07:58:57;97580.25;;;9.86;nan
19108;BME280;9686;48.832;9.126;2023-04-25T08:01:22;97580.13;;;9.96;nan
19108;BME280;9686;48.832;9.126;2023-04-25T08:03:48;97581.03;;;9.93;nan
19108;BME280;9686;48.832;9.126;2023-04-25T08:06:13;97588.13;;;9.82;nan
19108;BME280;9686;48.832;9.126;2023-04-25T08:08:38;97593.25;;;9.86;nan
19108;BME280;9686;48.832;9.126;2023-04-25T08:11:04;97593.25;;;9.86;nan
19108;BME280;9686;48.832;9.126;2023-04-25T08:13:29;97598.63;;;9.76;nan
19108;BME280;9686;48.832;9.126;2023-04-25T08:15:55;97603.13;;;9.60;nan
19108;BME280;9686;48.832;9.126;2023-04-25T08:18:20;97615.28;;;9.59;nan
19108;BME280;9686;48.832;9.126;2023-04-25T08:20:45;97618.75;;;9.58;nan
19108;BME280;9686;48.832;9.126;2023-04-25T08:23:10;97621.41;;;9.55;nan
19108;BME280;9686;48.832;9.126;2023-04-25T08:25:36;97628.41;;;9.50;nan
19108;BME280;9686;48.832;9.126;2023-04-25T08:28:01;97629.28;;;9.51;nan
19108;BME280;9686;48.832;9.126;2023-04-25T08:30:28;97639.66;;;9.52;nan
19108;BME280;9686;48.832;9.126;2023-04-25T08:32:54;97645.56;;;9.67;nan
19108;BME280;9686;48.832;9.126;2023-04-25T08:35:20;97639.38;;;9.77;nan
19108;BME280;9686;48.832;9.126;2023-04-25T08:37:45;97636.94;;;9.65;nan
19108;BME280;9686;48.832;9.126;2023-04-25T08:40:14;97640.03;;;9.94;nan
19108;BME280;9686;48.832;9.126;2023-04-25T08:42:41;97648.78;;;9.87;nan
19108;BME280;9686;48.832;9.126;2023-04-25T08:45:07;97643.75;;;9.73;nan
19108;BME280;9686;48.832;9.126;2023-04-25T08:47:33;97652.53;;;9.66;nan
19108;BME280;9686;48.832;9.126;2023-04-25T08:50:00;97647.25;;;9.72;nan
19108;BME280;9686;48.832;9.126;2023-04-25T08:52:28;97647.97;;;9.83;nan
19108;BME280;9686;48.832;9.126;2023-04-25T08:54:55;97661.19;;;9.67;nan
19108;BME280;9686;48.832;9.126;2023-04-25T08:57:22;97655.75;;;9.85;nan
19108;BME280;9686;48.832;9.126;2023-04-25T08:59:48;97657.63;;;9.74;nan
19108;BME280;9686;48.832;9.126;2023-04-25T09:02:14;97655.09;;;9.69;nan
19108;BME280;9686;48.832;9.126;2023-04-25T09:04:43;97667.97;;;9.80;nan
19108;BME280;9686;48.832;9.126;2023-04-25T09:07:09;97674.03;;;9.80;nan
19108;BME280;9686;48.832;9.126;2023-04-25T09:09:34;97668.78;;;9.83;nan
19108;BME280;9686;48.832;9.126;2023-04-25T09:12:00;97668.91;;;9.74;nan
19108;BME280;9686;48.832;9.126;2023-04-25T09:14:27;97675.59;;;9.95;nan
19108;BME280;9686;48.832;9.126;2023-04-25T09:21:50;97692.16;;;9.91;nan
19108;BME280;9686;48.832;9.126;2023-04-25T09:24:16;97693.00;;;9.88;nan
19108;BME280;9686;48.832;9.126;2023-04-25T09:26:44;97693.03;;;9.87;nan
19108;BME280;9686;48.832;9.126;2023-04-25T09:29:09;97701.84;;;9.75;nan
19108;BME280;9686;48.832;9.126;2023-04-25T09:31:35;97714.00;;;9.75;nan
19108;BME280;9686;48.832;9.126;2023-04-25T09:34:01;97711.38;;;9.76;nan
19108;BME280;9686;48.832;9.126;2023-04-25T09:36:27;97717.50;;;9.72;nan
19108;BME280;9686;48.832;9.126;2023-04-25T09:38:53;97715.78;;;9.73;nan
19108;BME280;9686;48.832;9.126;2023-04-25T09:41:23;97728.88;;;9.64;nan
19108;BME280;9686;48.832;9.126;2023-04-25T09:43:49;97723.72;;;9.57;nan
19108;BME280;9686;48.832;9.126;2023-04-25T09:46:15;97737.66;;;9.52;nan
19108;BME280;9686;48.832;9.126;2023-04-25T09:48:48;97740.38;;;9.41;nan
19108;BME280;9686;48.832;9.126;2023-04-25T09:51:14;97750.81;;;9.35;nan
19108;BME280;9686;48.832;9.126;2023-04-25T09:53:44;97760.28;;;9.45;nan
19108;BME280;9686;48.832;9.126;2023-04-25T09:56:12;97764.69;;;9.39;nan
19108;BME280;9686;48.832;9.126;2023-04-25T09:58:39;97771.72;;;9.24;nan
19108;BME280;9686;48.832;9.126;2023-04-25T10:01:08;97773.72;;;8.89;nan
19108;BME280;9686;48.832;9.126;2023-04-25T10:03:35;97775.53;;;8.75;nan
19108;BME280;9686;48.832;9.126;2023-04-25T10:06:02;97774.72;;;8.63;nan
19108;BME280;9686;48.832;9.126;2023-04-25T10:08:34;97787.69;;;8.70;nan
19108;BME280;9686;48.832;9.126;2023-04-25T10:11:01;97784.22;;;8.71;nan
19108;BME280;9686;48.832;9.126;2023-04-25T10:13:28;97797.28;;;8.52;nan
19108;BME280;9686;48.832;9.126;2023-04-25T10:15:55;97802.44;;;8.58;nan
19108;BME280;9686;48.832;9.126;2023-04-25T10:18:21;97816.31;;;8.57;nan
19108;BME280;9686;48.832;9.126;2023-04-25T10:20:46;97813.81;;;8.34;nan
19108;BME280;9686;48.832;9.126;2023-04-25T10:23:13;97831.16;;;8.17;nan
19108;BME280;9686;48.832;9.126;2023-04-25T10:25:41;97841.59;;;7.82;nan
19108;BME280;9686;48.832;9.126;2023-04-25T10:28:06;97845.03;;;7.77;nan
19108;BME280;9686;48.832;9.126;2023-04-25T10:30:32;97858.00;;;7.80;nan
19108;BME280;9686;48.832;9.126;2023-04-25T10:32:58;97864.97;;;7.62;nan
19108;BME280;9686;48.832;9.126;2023-04-25T10:35:26;97861.50;;;7.65;nan
19108;BME280;9686;48.832;9.126;2023-04-25T10:38:11;97873.59;;;7.73;nan
19108;BME280;9686;48.832;9.126;2023-04-25T10:40:39;97874.44;;;7.77;nan
19108;BME280;9686;48.832;9.126;2023-04-25T10:43:33;97877.94;;;7.62;nan
19108;BME280;9686;48.832;9.126;2023-04-25T10:46:01;97882.25;;;7.88;nan
19108;BME280;9686;48.832;9.126;2023-04-25T10:48:30;97877.91;;;7.96;nan
19108;BME280;9686;48.832;9.126;2023-04-25T10:51:15;97883.97;;;7.78;nan
19108;BME280;9686;48.832;9.126;2023-04-25T10:53:41;97884.00;;;7.81;nan
19108;BME280;9686;48.832;9.126;2023-04-25T10:56:19;97890.88;;;8.05;nan
19108;BME280;9686;48.832;9.126;2023-04-25T10:58:45;97895.22;;;8.09;nan
19108;BME280;9686;48.832;9.126;2023-04-25T11:01:13;97894.31;;;8.16;nan
19108;BME280;9686;48.832;9.126;2023-04-25T11:03:43;97896.88;;;8.27;nan
19108;BME280;9686;48.832;9.126;2023-04-25T11:06:36;97895.16;;;8.27;nan
19108;BME280;9686;48.832;9.126;2023-04-25T11:09:03;97892.56;;;8.27;nan
19108;BME280;9686;48.832;9.126;2023-04-25T11:11:36;97886.56;;;8.10;nan
19108;BME280;9686;48.832;9.126;2023-04-25T11:14:01;97896.91;;;8.24;nan
19108;BME280;9686;48.832;9.126;2023-04-25T11:16:27;97885.66;;;8.42;nan
19108;BME280;9686;48.832;9.126;2023-04-25T11:18:52;97894.31;;;8.39;nan
19108;BME280;9686;48.832;9.126;2023-04-25T11:21:17;97889.09;;;8.25;nan
19108;BME280;9686;48.832;9.126;2023-04-25T11:23:45;97893.41;;;8.31;nan
19108;BME280;9686;48.832;9.126;2023-04-25T11:26:11;97895.19;;;8.35;nan
19108;BME280;9686;48.832;9.126;2023-04-25T11:28:36;97894.28;;;8.31;nan
19108;BME280;9686;48.832;9.126;2023-04-25T11:31:03;97890.84;;;8.25;nan
19108;BME280;9686;48.832;9.126;2023-04-25T11:33:29;97889.94;;;8.50;nan
19108;BME280;9686;48.832;9.126;2023-04-25T11:35:55;97890.81;;;8.46;nan
19108;BME280;9686;48.832;9.126;2023-04-25T11:38:22;97890.81;;;8.46;nan
19108;BME280;9686;48.832;9.126;2023-04-25T11:40:51;97891.72;;;8.39;nan
19108;BME280;9686;48.832;9.126;2023-04-25T11:43:17;97896.03;;;8.42;nan
19108;BME280;9686;48.832;9.126;2023-04-25T11:45:49;97902.94;;;8.47;nan
19108;BME280;9686;48.832;9.126;2023-04-25T11:48:15;97893.41;;;8.46;nan
19108;BME280;9686;48.832;9.126;2023-04-25T11:50:41;97897.72;;;8.59;nan
19108;BME280;9686;48.832;9.126;2023-04-25T11:53:07;97893.38;;;8.66;nan
19108;BME280;9686;48.832;9.126;2023-04-25T11:55:34;97899.44;;;8.67;nan
19108;BME280;9686;48.832;9.126;2023-04-25T11:58:00;97891.66;;;8.54;nan
19108;BME280;9686;48.832;9.126;2023-04-25T12:00:26;97902.06;;;8.59;nan
19108;BME280;9686;48.832;9.126;2023-04-25T12:02:53;97902.91;;;8.62;nan
19108;BME280;9686;48.832;9.126;2023-04-25T12:05:19;97902.91;;;8.64;nan
19108;BME280;9686;48.832;9.126;2023-04-25T12:07:45;97906.38;;;8.51;nan
19108;BME280;9686;48.832;9.126;2023-04-25T12:10:15;97911.53;;;8.68;nan
19108;BME280;9686;48.832;9.126;2023-04-25T12:12:41;97910.69;;;8.67;nan
19108;BME280;9686;48.832;9.126;2023-04-25T12:15:32;97914.13;;;8.72;nan
19108;BME280;9686;48.832;9.126;2023-04-25T12:17:56;97912.34;;;8.82;nan
19108;BME280;9686;48.832;9.126;2023-04-25T12:20:24;97916.69;;;8.78;nan
19108;BME280;9686;48.832;9.126;2023-04-25T12:22:51;97914.13;;;8.71;nan
19108;BME280;9686;48.832;9.126;2023-04-25T12:25:36;97911.47;;;8.83;nan
19108;BME280;9686;48.832;9.126;2023-04-25T12:28:29;97915.75;;;8.98;nan
19108;BME280;9686;48.832;9.126;2023-04-25T12:33:32;97913.81;;;9.36;nan
19108;BME280;9686;48.832;9.126;2023-04-25T12:35:58;97910.25;;;9.52;nan
19108;BME280;9686;48.832;9.126;2023-04-25T12:38:28;97911.75;;;9.82;nan
19108;BME280;9686;48.832;9.126;2023-04-25T12:40:55;97908.22;;;9.91;nan
19108;BME280;9686;48.832;9.126;2023-04-25T12:43:21;97907.13;;;10.18;nan
19108;BME280;9686;48.832;9.126;2023-04-25T12:45:51;97896.63;;;10.29;nan
19108;BME280;9686;48.832;9.126;2023-04-25T12:48:17;97903.34;;;10.51;nan
19108;BME280;9686;48.832;9.126;2023-04-25T12:50:42;97894.59;;;10.57;nan
19108;BME280;9686;48.832;9.126;2023-04-25T12:53:08;97906.63;;;10.70;nan
19108;BME280;9686;48.832;9.126;2023-04-25T12:55:34;97894.66;;;10.50;nan
19108;BME280;9686;48.832;9.126;2023-04-25T12:57:59;97891.28;;;10.39;nan
19108;BME280;9686;48.832;9.126;2023-04-25T13:00:24;97887.00;;;10.35;nan
19108;BME280;9686;48.832;9.126;2023-04-25T13:02:51;97894.78;;;10.38;nan
19108;BME280;9686;48.832;9.126;2023-04-25T13:05:17;97900.81;;;10.45;nan
19108;BME280;9686;48.832;9.126;2023-04-25T13:07:42;97902.22;;;10.73;nan
19108;BME280;9686;48.832;9.126;2023-04-25T13:10:08;97891.31;;;11.10;nan
19108;BME280;9686;48.832;9.126;2023-04-25T13:12:33;97898.03;;;11.28;nan
19108;BME280;9686;48.832;9.126;2023-04-25T13:14:58;97893.56;;;11.37;nan
19108;BME280;9686;48.832;9.126;2023-04-25T13:17:24;97888.38;;;11.34;nan
19108;BME280;9686;48.832;9.126;2023-04-25T13:19:49;97889.13;;;11.42;nan
19108;BME280;9686;48.832;9.126;2023-04-25T13:22:15;97889.16;;;11.39;nan
19108;BME280;9686;48.832;9.126;2023-04-25T13:24:42;97886.47;;;11.44;nan
19108;BME280;9686;48.832;9.126;2023-04-25T13:27:07;97890.34;;;11.20;nan
19108;BME280;9686;48.832;9.126;2023-04-25T13:29:33;97889.78;;;10.97;nan
19108;BME280;9686;48.832;9.126;2023-04-25T13:32:01;97889.06;;;10.82;nan
19108;BME280;9686;48.832;9.126;2023-04-25T13:34:26;97906.03;;;10.43;nan
19108;BME280;9686;48.832;9.126;2023-04-25T13:36:52;97979.72;;;10.58;nan
19108;BME280;9686;48.832;9.126;2023-04-25T13:39:18;57734.34;;;-143.88;100.00
19108;BME280;9686;48.832;9.126;2023-04-25T13:41:43;57734.34;;;-143.88;100.00
19108;BME280;9686;48.832;9.126;2023-04-25T13:44:09;57734.34;;;-143.88;100.00